Weather Forecast for Dubai Airport  
Wednesday, December 13, 2017 (12:54 UTC)
Dubai International Airport
Last Updated: 13-12-2017 (12:52Z)
Wind Dir/Speed: N at 8 KT
Temperature: 24.1 °C
Rel. Humidity: 39 %
Pressure: 1016.3 hPa
Visibility: 10000 m
  • METAR OMDB 131230Z 02011G27KT 340V060 CAVOK 24/10 Q1016 NOSIG
NEXT 5 DAY FORECAST (OMDB): as on 13-December-2017
WEDNESDAY
HIGH:
27 °C
LOW:
17 °C
THURSDAY
HIGH:
26 °C
LOW:
18 °C
FRIDAY
HIGH:
26 °C
LOW:
19 °C
SATURDAY
HIGH:
24 °C
LOW:
19 °C
SUNDAY
HIGH:
23 °C
LOW:
19 °C

DUBAI AIRPORT WEATHER FORECAST FOR 30 HOUR:
DUBAI TAF:
TAF OMDB 131056Z 1312/1418 36014KT 8000 NSC 
 BECMG 1314/1316 07008KT 
 BECMG 1409/1411 34013KT 
 BECMG 1414/1416 09008KT=
VALID FROM:
2017-12-13 12:00Z
VALID TILL:
2017-12-14 18:00Z
SURFACE WIND:
N'LY 14KT

BECOMING ENE'LY 08KT FROM 1400Z-1600Z TODAY
BECOMING NNW'LY 13KT FROM 0900Z-1100Z THURSDAY

BECOMING E'LY 08KT FROM 1400Z-1600Z THURSDAY.
VISIBILITY:
07-10 KM.
WEATHER:
FINE.
CLOUD:
NIL SIGNIFICANT.
TEMPERATURE:
MIN TEMPERATURE 19°C AROUND 0330Z THURSDAY

MAX TEMPERATURE 26°C AROUND 0930Z THURSDAY.
HUMIDITY:
MAX HUMIDITY 70% AROUND 0330Z THURSDAY

MIN HUMIDITY 30% AROUND 0930Z THURSDAY.
WIND SHEAR:
NIL SIGNIFICANT.
TEMPERATURE INVERSION:
NIL SIGNIFICANT.
COMMENTS:
NIL.